Home > Products > Valid Products > TAF

000
FTUS43 KLBF 301400 AAA
TAFLBF
TAF AMD
KLBF 301426Z 3014/3112 01010KT P6SM BKN028
     FM301800 06005KT P6SM SKC
     FM310300 12007KT P6SM SCT250=



000
FTUS43 KLBF 301100
TAFLBF
TAF
KLBF 301120Z 3012/3112 34006KT P6SM FEW028
     FM301800 06005KT P6SM SKC
     FM310300 12007KT P6SM SCT250=



000
FTUS43 KLBF 301100
TAFVTN
TAF
KVTN 301120Z 3012/3112 01006KT P6SM SKC
     FM310300 14009KT P6SM SCT250=



000
FTUS43 KLBF 301100
TAFLBF
TAF
KLBF 301120Z 3012/3112 34006KT P6SM FEW028
     FM301800 06005KT P6SM SKC
     FM310300 12007KT P6SM SCT250=



000
FTUS43 KLBF 301100
TAFVTN
TAF
KVTN 301120Z 3012/3112 01006KT P6SM SKC
     FM310300 14009KT P6SM SCT250=



000
FTUS43 KLBF 300500
TAFVTN
TAF
KVTN 300520Z 3006/3106 VRB06KT P6SM SKC
     FM310300 12008KT P6SM SCT200=



000
FTUS43 KLBF 300500
TAFLBF
TAF
KLBF 300520Z 3006/3106 02007KT P6SM SCT120
     FM301800 VRB06KT P6SM SKC
     FM310300 12007KT P6SM SKC=



000
FTUS43 KLBF 300500
TAFLBF
TAF
KLBF 300520Z 3006/3106 02007KT P6SM SCT120
     FM301800 VRB06KT P6SM SKC
     FM310300 12007KT P6SM SKC=



000
FTUS43 KLBF 300200 AAA
TAFLBF
TAF AMD
KLBF 300247Z 3003/3024 36010KT P6SM OVC015
     FM300500 35006KT P6SM BKN035
     FM301500 02007KT P6SM SKC
     FM301800 VRB06KT P6SM SKC=



000
FTUS43 KLBF 300200 AAA
TAFLBF
TAF AMD
KLBF 300247Z 3003/3024 36010KT P6SM OVC015
     FM300500 35006KT P6SM BKN035
     FM301500 02007KT P6SM SKC
     FM301800 VRB06KT P6SM SKC=



000
FTUS43 KLBF 292300
TAFLBF
TAF
KLBF 292320Z 3000/3024 36017G24KT P6SM SCT020 OVC050
      TEMPO 3000/3002 P6SM -SHRA BKN020 OVC050
     FM300200 36010KT P6SM OVC020
     FM300500 35006KT P6SM BKN035
     FM301500 02007KT P6SM SKC
     FM301800 VRB06KT P6SM SKC=



000
FTUS43 KLBF 292300
TAFVTN
TAF
KVTN 292320Z 3000/3024 35015G22KT P6SM BKN010 OVC020
     FM300200 35006KT P6SM SCT040
     FM300600 VRB06KT P6SM SKC=



000
FTUS43 KLBF 292200 AAA
TAFVTN
TAF AMD
KVTN 292222Z 2922/3018 35015G22KT P6SM -RA OVC009
     FM300000 36011KT P6SM OVC020
     FM300600 VRB06KT P6SM SKC=



000
FTUS43 KLBF 292200 AAA
TAFLBF
TAF AMD
KLBF 292221Z 2922/3018 33013G20KT P6SM -RA OVC015
     FM300200 36012KT P6SM OVC020
     FM301500 02007KT P6SM SKC=



000
FTUS43 KLBF 291700
TAFLBF
TAF
KLBF 291720Z 2918/3018 35015G22KT P6SM VCSH BKN025 BKN035
      TEMPO 2920/2924 -SHRA OVC020
     FM300000 36012KT P6SM OVC020
     FM301500 02007KT P6SM SKC=



000
FTUS43 KLBF 291700
TAFVTN
TAF
KVTN 291720Z 2918/3018 34017G27KT 6SM BR BKN008 OVC015
     FM292100 01015KT 6SM BR OVC010
     FM300000 36011KT P6SM OVC020
     FM300600 VRB06KT P6SM SKC=



000
FTUS43 KLBF 291700
TAFLBF
TAF
KLBF 291720Z 2918/3018 35015G22KT P6SM VCSH BKN025 BKN035
      TEMPO 2920/2924 -SHRA OVC020
     FM300000 36012KT P6SM OVC020
     FM301500 02007KT P6SM SKC=



000
FTUS43 KLBF 291700
TAFVTN
TAF
KVTN 291720Z 2918/3018 34017G27KT 6SM BR BKN008 OVC015
     FM292100 01015KT 6SM BR OVC010
     FM300000 36011KT P6SM OVC020
     FM300600 VRB06KT P6SM SKC=



000
FTUS43 KLBF 291600 AAA
TAFLBF
TAF AMD
KLBF 291637Z 2917/3012 32012KT P6SM BKN025
     FM291800 35015G22KT P6SM VCSH OVC050
      TEMPO 2919/2922 -SHRA OVC040
     FM300000 36012KT P6SM OVC030=



000
FTUS43 KLBF 291600 AAC
TAFVTN
TAF AMD
KVTN 291606Z 2916/3012 35015G22KT 6SM BR BKN003 BKN010
     FM292100 01013KT P6SM OVC025
     FM300000 01006KT P6SM OVC025=



000
FTUS43 KLBF 291400 AAB
TAFVTN
TAF AMD
KVTN 291431Z 2915/3012 33013G18KT P6SM -SHRA SCT015 BKN020 OVC040
     FM291600 35015G22KT P6SM -SHRA SCT012 OVC040
     FM292100 01013KT P6SM OVC025
     FM300000 01006KT P6SM OVC025=



000
FTUS43 KLBF 291200 AAA
TAFVTN
TAF AMD
KVTN 291211Z 2912/3012 32012G18KT P6SM VCSH BKN012 OVC080
      TEMPO 2912/2914 BKN008
     FM291400 34009KT P6SM -SHRA SCT012 OVC040
     FM291600 35015G22KT P6SM -SHRA SCT012 OVC040
     FM292100 01013KT P6SM OVC025
     FM300000 01006KT P6SM OVC025=



000
FTUS43 KLBF 291200 AAA
TAFVTN
TAF AMD
KVTN 291211Z 2912/3012 32012G18KT P6SM VCSH BKN012 OVC080
      TEMPO 2912/2914 BKN008
     FM291400 34009KT P6SM -SHRA SCT012 OVC040
     FM291600 35015G22KT P6SM -SHRA SCT012 OVC040
     FM292100 01013KT P6SM OVC025
     FM300000 01006KT P6SM OVC025=



000
FTUS43 KLBF 291100 CCA
TAFVTN
TAF COR
KVTN 291154Z 2912/3012 32012G18KT P6SM VCSH BKN012 OVC080
     FM291400 34009KT P6SM -SHRA SCT012 OVC040
     FM291600 35015G22KT P6SM -SHRA SCT012 OVC040
     FM292100 01013KT P6SM OVC025
     FM300000 01006KT P6SM OVC025=



000
FTUS43 KLBF 291100 CCA
TAFVTN
TAF COR
KVTN 291154Z 2912/3012 32012G18KT P6SM VCSH BKN012 OVC080
     FM291400 34009KT P6SM -SHRA SCT012 OVC040
     FM291600 35015G22KT P6SM -SHRA SCT012 OVC040
     FM292100 01013KT P6SM OVC025
     FM300000 01006KT P6SM OVC025=



000
FTUS43 KLBF 291100
TAFVTN
TAF
KVTN 291132Z 2912/3012 30011KT P6SM VCSH BKN040 BKN060 OVC080
     FM291400 34009KT P6SM -SHRA SCT012 OVC040
     FM291600 35015G22KT P6SM -SHRA SCT012 OVC040
     FM292100 01013KT P6SM OVC025
     FM300000 01006KT P6SM OVC025=



000
FTUS43 KLBF 291100
TAFLBF
TAF
KLBF 291132Z 2912/3012 27006KT P6SM SCT120
     FM291500 32012KT P6SM SCT120
     FM291800 35015G22KT P6SM VCSH OVC050
      TEMPO 2919/2922 -SHRA OVC040
     FM300000 36012KT P6SM OVC030=



000
FTUS43 KLBF 290600 AAA
TAFVTN
TAF AMD
KVTN 290627Z 2906/3006 32008KT P6SM FEW060 OVC150
     FM291600 35016G25KT P6SM OVC035
      TEMPO 2916/2920 SHRA OVC035
     FM300000 36007KT P6SM BKN050=



000
FTUS43 KLBF 290600 AAA
TAFVTN
TAF AMD
KVTN 290627Z 2906/3006 32008KT P6SM FEW060 OVC150
     FM291600 35016G25KT P6SM OVC035
      TEMPO 2916/2920 SHRA OVC035
     FM300000 36007KT P6SM BKN050=



000
FTUS43 KLBF 290500
TAFVTN
TAF
KVTN 290520Z 2906/3006 31012G19KT P6SM FEW060 OVC150
     FM291600 35016G25KT P6SM OVC035 PROB30 2916/2920 5SM SHRA
      OVC035
     FM300000 36007KT P6SM BKN050=



000
FTUS43 KLBF 290500
TAFLBF
TAF
KLBF 290520Z 2906/3006 30008KT P6SM -SHRA BKN070 OVC150
     FM290800 30008KT P6SM OVC100
     FM291800 34015G22KT P6SM BKN040 PROB30 2923/3003 5SM SHRA
      OVC040
     FM300300 01008KT P6SM OVC035=



000
FTUS43 KLBF 290400 AAA
TAFVTN
TAF AMD
KVTN 290401Z 2904/2924 31012G19KT P6SM FEW060 OVC150
     FM291400 32014G22KT P6SM OVC035 PROB30 2919/2923 5SM SHRA
      OVC035=



000
FTUS43 KLBF 282300
TAFLBF
TAF
KLBF 282324Z 2900/2924 18010KT P6SM VCTS SCT040CB BKN070
      TEMPO 2900/2903 3SM +TSRA OVC035CB
     FM290300 21005KT P6SM SCT020 BKN100
     FM291200 30008KT P6SM OVC020
     FM291600 34012KT P6SM BKN040 PROB30 2922/2924 4SM TSRA
      OVC040CB=



000
FTUS43 KLBF 282300
TAFVTN
TAF
KVTN 282324Z 2900/2924 23008KT P6SM OVC150
     FM290400 27008KT P6SM SCT020 BKN100
     FM291400 32014G22KT P6SM OVC035 PROB30 2919/2923 5SM SHRA
      OVC035=



000
FTUS43 KLBF 282300
TAFVTN
TAF
KVTN 282324Z 2900/2924 23008KT P6SM OVC150
     FM290400 27008KT P6SM SCT020 BKN100
     FM291400 32014G22KT P6SM OVC035 PROB30 2919/2923 5SM SHRA
      OVC035=



000
FTUS43 KLBF 282300
TAFLBF
TAF
KLBF 282324Z 2900/2924 18010KT P6SM VCTS SCT040CB BKN070
      TEMPO 2900/2903 3SM +TSRA OVC035CB
     FM290300 21005KT P6SM SCT020 BKN100
     FM291200 30008KT P6SM OVC020
     FM291600 34012KT P6SM BKN040 PROB30 2922/2924 4SM TSRA
      OVC040CB=



000
FTUS43 KLBF 281700
TAFVTN
TAF
KVTN 281725Z 2818/2918 17009KT P6SM BKN120
     FM290000 18009KT P6SM -SHRA BKN050
      TEMPO 2900/2903 3SM TSRA OVC035CB
     FM290400 27008KT P6SM SCT020 BKN100
     FM291400 32014G22KT P6SM OVC035=



000
FTUS43 KLBF 281700
TAFLBF
TAF
KLBF 281725Z 2818/2918 17008KT P6SM BKN025
     FM282000 16008KT P6SM BKN035
     FM290000 15008KT P6SM -SHRA BKN035
      TEMPO 2900/2903 3SM TSRA OVC035CB
     FM290300 21005KT P6SM SCT020 BKN100
     FM291200 30008KT P6SM BKN200=



000
FTUS43 KLBF 281700
TAFVTN
TAF
KVTN 281725Z 2818/2918 17009KT P6SM BKN120
     FM290000 18009KT P6SM -SHRA BKN050
      TEMPO 2900/2903 3SM TSRA OVC035CB
     FM290400 27008KT P6SM SCT020 BKN100
     FM291400 32014G22KT P6SM OVC035=



000
FTUS43 KLBF 281700
TAFLBF
TAF
KLBF 281725Z 2818/2918 17008KT P6SM BKN025
     FM282000 16008KT P6SM BKN035
     FM290000 15008KT P6SM -SHRA BKN035
      TEMPO 2900/2903 3SM TSRA OVC035CB
     FM290300 21005KT P6SM SCT020 BKN100
     FM291200 30008KT P6SM BKN200=



000
FTUS43 KLBF 281600 AAD
TAFLBF
TAF AMD
KLBF 281613Z 2816/2912 15006KT P6SM BKN020 BKN200
     FM281800 16008KT P6SM BKN050
     FM290000 08006KT P6SM BKN050 PROB30 2903/2906 3SM TSRA
      OVC035CB=



000
FTUS43 KLBF 281600 AAD
TAFLBF
TAF AMD
KLBF 281613Z 2816/2912 15006KT P6SM BKN020 BKN200
     FM281800 16008KT P6SM BKN050
     FM290000 08006KT P6SM BKN050 PROB30 2903/2906 3SM TSRA
      OVC035CB=



000
FTUS43 KLBF 281400 AAC
TAFLBF
TAF AMD
KLBF 281400Z 2814/2912 15006KT P6SM SCT200
     FM281800 16008KT P6SM BKN050
     FM290000 08006KT P6SM BKN050 PROB30 2903/2906 3SM TSRA
      OVC035CB=



000
FTUS43 KLBF 281300 AAB
TAFLBF
TAF AMD
KLBF 281347Z 2814/2912 13006KT 5SM BR BKN002
     FM281500 16006KT P6SM SCT012 BKN200
     FM281800 16008KT P6SM BKN050
     FM290000 08006KT P6SM BKN050 PROB30 2903/2906 3SM TSRA
      OVC035CB=



000
FTUS43 KLBF 281300 AAB
TAFLBF
TAF AMD
KLBF 281347Z 2814/2912 13006KT 5SM BR BKN002
     FM281500 16006KT P6SM SCT012 BKN200
     FM281800 16008KT P6SM BKN050
     FM290000 08006KT P6SM BKN050 PROB30 2903/2906 3SM TSRA
      OVC035CB=



000
FTUS43 KLBF 281300 AAA
TAFLBF
TAF AMD
KLBF 281332Z 2814/2912 13006KT 1 1/2SM BR BKN002
     FM281500 16006KT P6SM SCT012 BKN200
     FM281800 16008KT P6SM BKN050
      TEMPO 2818/2822 3SM +TSRA SCT020 OVC035CB
     FM290000 08006KT P6SM BKN050 PROB30 2906/2909 3SM TSRA
      OVC035CB=



000
FTUS43 KLBF 281300 AAA
TAFLBF
TAF AMD
KLBF 281332Z 2814/2912 13006KT 1 1/2SM BR BKN002
     FM281500 16006KT P6SM SCT012 BKN200
     FM281800 16008KT P6SM BKN050
      TEMPO 2818/2822 3SM +TSRA SCT020 OVC035CB
     FM290000 08006KT P6SM BKN050 PROB30 2906/2909 3SM TSRA
      OVC035CB=



000
FTUS43 KLBF 281100 RRA
TAFLBF
TAF
KLBF 281142Z 2812/2912 10006KT 1/4SM FG VV001
     FM281500 16006KT P6SM SCT012 OVC150
     FM281800 16008KT P6SM BKN050
      TEMPO 2818/2822 3SM +TSRA SCT020 OVC035CB
     FM290000 08006KT P6SM BKN050 PROB30 2906/2909 3SM TSRA
      OVC035CB=



000
FTUS43 KLBF 281100 RRA
TAFVTN
TAF
KVTN 281142Z 2812/2912 15006KT P6SM BKN120
     FM281800 18008KT P6SM BKN120
      TEMPO 2820/2824 P6SM -TSRA BKN050CB
     FM290000 21008KT P6SM BKN050 OVC250
      TEMPO 2902/2905 P6SM -TSRA BKN050CB=



000
FTUS43 KLBF 281100 RRA
TAFLBF
TAF
KLBF 281142Z 2812/2912 10006KT 1/4SM FG VV001
     FM281500 16006KT P6SM SCT012 OVC150
     FM281800 16008KT P6SM BKN050
      TEMPO 2818/2822 3SM +TSRA SCT020 OVC035CB
     FM290000 08006KT P6SM BKN050 PROB30 2906/2909 3SM TSRA
      OVC035CB=



000
FTUS43 KLBF 281100 RRA
TAFVTN
TAF
KVTN 281142Z 2812/2912 15006KT P6SM BKN120
     FM281800 18008KT P6SM BKN120
      TEMPO 2820/2824 P6SM -TSRA BKN050CB
     FM290000 21008KT P6SM BKN050 OVC250
      TEMPO 2902/2905 P6SM -TSRA BKN050CB=



000
FTUS43 KLBF 281100 AAA
TAFVTN
TAF AMD
KVTN 281110Z 2811/2906 15006KT P6SM SCT120
     FM281500 20010KT P6SM BKN020
     FM281800 16012G18KT P6SM BKN040 PROB30 2823/2903 3SM +TSRA
      SCT020 OVC035CB
     FM290300 23010KT P6SM BKN120=



000
FTUS43 KLBF 281100 AAC
TAFLBF
TAF AMD
KLBF 281108Z 2811/2906 VRB04KT P6SM OVC150
      TEMPO 2811/2812 1/2SM FG VV001
     FM281600 16007KT P6SM BKN018
     FM281800 16008KT P6SM BKN035 PROB30 2900/2904 3SM +TSRA SCT020
      OVC035CB
     FM290400 20008KT P6SM BKN120=



000
FTUS43 KLBF 281000 AAB
TAFLBF
TAF AMD
KLBF 281014Z 2810/2906 VRB04KT P6SM OVC150
      TEMPO 2810/2812 1SM BR OVC014
     FM281600 16007KT P6SM BKN018
     FM281800 16008KT P6SM BKN035 PROB30 2900/2904 3SM +TSRA SCT020
      OVC035CB
     FM290400 20008KT P6SM BKN120=



000
FTUS43 KLBF 280900 AAA
TAFLBF
TAF AMD
KLBF 280931Z 2810/2906 VRB04KT 1SM BR OVC010
     FM281600 16007KT P6SM BKN018
     FM281800 16008KT P6SM BKN035 PROB30 2900/2904 3SM +TSRA SCT020
      OVC035CB
     FM290400 20008KT P6SM BKN120=



000
FTUS43 KLBF 280500
TAFLBF
TAF
KLBF 280520Z 2806/2906 18010KT P6SM BKN200
     FM280900 12006KT 5SM BR OVC010
     FM281600 16007KT P6SM BKN018
     FM281800 16008KT P6SM BKN035 PROB30 2900/2904 3SM +TSRA SCT020
      OVC035CB
     FM290400 20008KT P6SM BKN120=



000
FTUS43 KLBF 280500
TAFVTN
TAF
KVTN 280520Z 2806/2906 20010KT P6SM BKN120
     FM281100 18006KT P6SM BKN015
     FM281500 20010KT P6SM BKN020
     FM281800 16012G18KT P6SM BKN040 PROB30 2823/2903 3SM +TSRA
      SCT020 OVC035CB
     FM290300 23010KT P6SM BKN120=



000
FTUS43 KLBF 272300
TAFLBF
TAF
KLBF 272333Z 2800/2824 16012G17KT P6SM SCT060 BKN100
      TEMPO 2802/2803 -TSRA BKN040CB
     FM280300 13008KT P6SM BKN150
     FM280900 12006KT 5SM BR OVC010
     FM281600 16007KT P6SM BKN018
     FM281800 16008KT P6SM BKN035=



000
FTUS43 KLBF 272300
TAFVTN
TAF
KVTN 272333Z 2800/2824 14012G18KT P6SM VCTS SCT070CB BKN200
     FM280300 17011KT P6SM BKN100
     FM281100 18006KT P6SM BKN015
     FM281500 20010KT P6SM BKN020
     FM281800 18012G18KT P6SM BKN040=



000
FTUS43 KLBF 271700
TAFVTN
TAF
KVTN 271732Z 2718/2818 17014G21KT P6SM BKN060 OVC090
     FM272300 16014G22KT P6SM VCTS SCT070CB BKN200
     FM280300 17011KT P6SM BKN100
     FM281100 18006KT P6SM BKN015
     FM281500 20010KT P6SM BKN020=



000
FTUS43 KLBF 271700
TAFLBF
TAF
KLBF 271732Z 2718/2818 16012G17KT P6SM SCT060 BKN100
      TEMPO 2722/2802 -TSRA BKN040CB
     FM280300 13008KT P6SM BKN150
     FM280900 12006KT 5SM BR OVC010
     FM281600 16007KT P6SM BKN018=



    US Dept of Commerce
    National Oceanic and Atmospheric Administration
    National Weather Service
    1325 East West Highway
    Silver Spring, MD 20910
    Page Author: NWS Internet Services Team
Disclaimer
Information Quality
Credits
Glossary
Privacy Policy
Freedom of Information Act (FOIA)
About Us
Career Opportunities